sensor_id;sensor_type;location;lat;lon;timestamp;P1;durP1;ratioP1;P2;durP2;ratioP2
5807;SDS011;2930;42.678;23.312;2023-03-09T00:01:34;1.15;;;1.05;;
5807;SDS011;2930;42.678;23.312;2023-03-09T00:04:00;1.87;;;1.10;;
5807;SDS011;2930;42.678;23.312;2023-03-09T00:06:26;1.25;;;1.05;;
5807;SDS011;2930;42.678;23.312;2023-03-09T00:08:52;1.30;;;1.20;;
5807;SDS011;2930;42.678;23.312;2023-03-09T00:11:18;0.87;;;0.87;;
5807;SDS011;2930;42.678;23.312;2023-03-09T00:13:44;1.17;;;0.90;;
5807;SDS011;2930;42.678;23.312;2023-03-09T00:16:20;1.43;;;1.33;;
5807;SDS011;2930;42.678;23.312;2023-03-09T00:18:47;1.57;;;1.43;;
5807;SDS011;2930;42.678;23.312;2023-03-09T00:21:16;1.77;;;1.63;;
5807;SDS011;2930;42.678;23.312;2023-03-09T00:24:06;2.40;;;1.67;;
5807;SDS011;2930;42.678;23.312;2023-03-09T00:26:37;2.00;;;1.37;;
5807;SDS011;2930;42.678;23.312;2023-03-09T00:29:04;3.67;;;2.10;;
5807;SDS011;2930;42.678;23.312;2023-03-09T00:31:31;2.80;;;2.27;;
5807;SDS011;2930;42.678;23.312;2023-03-09T00:33:57;3.27;;;2.57;;
5807;SDS011;2930;42.678;23.312;2023-03-09T00:36:22;3.13;;;2.10;;
5807;SDS011;2930;42.678;23.312;2023-03-09T00:38:53;4.10;;;2.33;;
5807;SDS011;2930;42.678;23.312;2023-03-09T00:41:20;4.07;;;2.10;;
5807;SDS011;2930;42.678;23.312;2023-03-09T00:43:47;3.53;;;1.80;;
5807;SDS011;2930;42.678;23.312;2023-03-09T00:46:13;2.80;;;2.37;;
5807;SDS011;2930;42.678;23.312;2023-03-09T00:48:40;2.30;;;2.10;;
5807;SDS011;2930;42.678;23.312;2023-03-09T00:51:06;2.23;;;2.00;;
5807;SDS011;2930;42.678;23.312;2023-03-09T00:53:33;4.50;;;1.83;;
5807;SDS011;2930;42.678;23.312;2023-03-09T00:56:03;1.23;;;1.17;;
5807;SDS011;2930;42.678;23.312;2023-03-09T00:58:31;4.43;;;1.87;;
5807;SDS011;2930;42.678;23.312;2023-03-09T01:00:56;2.30;;;1.60;;
5807;SDS011;2930;42.678;23.312;2023-03-09T01:03:22;1.73;;;1.60;;
5807;SDS011;2930;42.678;23.312;2023-03-09T01:05:48;4.13;;;1.87;;
5807;SDS011;2930;42.678;23.312;2023-03-09T01:08:14;4.93;;;1.77;;
5807;SDS011;2930;42.678;23.312;2023-03-09T01:10:40;3.37;;;1.93;;
5807;SDS011;2930;42.678;23.312;2023-03-09T01:13:07;1.93;;;1.73;;
5807;SDS011;2930;42.678;23.312;2023-03-09T01:15:34;2.33;;;2.17;;
5807;SDS011;2930;42.678;23.312;2023-03-09T01:18:01;3.33;;;1.80;;
5807;SDS011;2930;42.678;23.312;2023-03-09T01:20:27;2.13;;;1.50;;
5807;SDS011;2930;42.678;23.312;2023-03-09T01:22:53;3.93;;;1.60;;
5807;SDS011;2930;42.678;23.312;2023-03-09T01:25:18;2.20;;;2.03;;
5807;SDS011;2930;42.678;23.312;2023-03-09T01:27:44;1.90;;;1.80;;
5807;SDS011;2930;42.678;23.312;2023-03-09T01:30:10;1.23;;;1.23;;
5807;SDS011;2930;42.678;23.312;2023-03-09T01:32:37;3.57;;;1.87;;
5807;SDS011;2930;42.678;23.312;2023-03-09T01:35:03;1.50;;;1.40;;
5807;SDS011;2930;42.678;23.312;2023-03-09T01:37:30;2.93;;;2.37;;
5807;SDS011;2930;42.678;23.312;2023-03-09T01:39:56;1.97;;;1.87;;
5807;SDS011;2930;42.678;23.312;2023-03-09T01:42:22;3.40;;;1.80;;
5807;SDS011;2930;42.678;23.312;2023-03-09T01:47:44;2.37;;;1.80;;
5807;SDS011;2930;42.678;23.312;2023-03-09T01:50:11;2.77;;;1.70;;
5807;SDS011;2930;42.678;23.312;2023-03-09T01:52:42;1.47;;;1.37;;
5807;SDS011;2930;42.678;23.312;2023-03-09T01:55:11;1.93;;;1.83;;
5807;SDS011;2930;42.678;23.312;2023-03-09T01:57:44;2.40;;;1.57;;
5807;SDS011;2930;42.678;23.312;2023-03-09T02:00:17;1.17;;;1.17;;
5807;SDS011;2930;42.678;23.312;2023-03-09T02:02:45;1.20;;;1.20;;
5807;SDS011;2930;42.678;23.312;2023-03-09T02:05:17;2.60;;;1.73;;
5807;SDS011;2930;42.678;23.312;2023-03-09T02:07:48;1.97;;;1.10;;
5807;SDS011;2930;42.678;23.312;2023-03-09T02:10:35;1.50;;;1.40;;
5807;SDS011;2930;42.678;23.312;2023-03-09T02:13:06;1.93;;;1.53;;
5807;SDS011;2930;42.678;23.312;2023-03-09T02:15:33;1.30;;;1.20;;
5807;SDS011;2930;42.678;23.312;2023-03-09T02:17:59;1.40;;;1.30;;
5807;SDS011;2930;42.678;23.312;2023-03-09T02:20:33;1.07;;;1.07;;
5807;SDS011;2930;42.678;23.312;2023-03-09T02:23:04;1.30;;;1.20;;
5807;SDS011;2930;42.678;23.312;2023-03-09T02:25:36;1.17;;;1.17;;
5807;SDS011;2930;42.678;23.312;2023-03-09T02:28:06;2.60;;;0.90;;
5807;SDS011;2930;42.678;23.312;2023-03-09T02:30:33;2.60;;;1.40;;
5807;SDS011;2930;42.678;23.312;2023-03-09T02:33:03;2.03;;;1.77;;
5807;SDS011;2930;42.678;23.312;2023-03-09T02:35:33;3.27;;;1.37;;
5807;SDS011;2930;42.678;23.312;2023-03-09T02:37:59;1.37;;;1.27;;
5807;SDS011;2930;42.678;23.312;2023-03-09T02:42:53;2.90;;;1.37;;
5807;SDS011;2930;42.678;23.312;2023-03-09T02:45:19;0.90;;;0.90;;
5807;SDS011;2930;42.678;23.312;2023-03-09T02:47:49;1.07;;;0.97;;
5807;SDS011;2930;42.678;23.312;2023-03-09T02:50:16;1.30;;;1.30;;
5807;SDS011;2930;42.678;23.312;2023-03-09T02:52:41;2.13;;;1.40;;
5807;SDS011;2930;42.678;23.312;2023-03-09T02:55:07;1.20;;;1.10;;
5807;SDS011;2930;42.678;23.312;2023-03-09T02:57:33;1.37;;;1.37;;
5807;SDS011;2930;42.678;23.312;2023-03-09T02:59:59;1.07;;;1.00;;
5807;SDS011;2930;42.678;23.312;2023-03-09T03:02:25;1.20;;;1.13;;
5807;SDS011;2930;42.678;23.312;2023-03-09T03:04:51;1.33;;;1.33;;
5807;SDS011;2930;42.678;23.312;2023-03-09T03:07:17;0.90;;;0.90;;
5807;SDS011;2930;42.678;23.312;2023-03-09T03:09:43;1.17;;;1.17;;
5807;SDS011;2930;42.678;23.312;2023-03-09T03:12:09;1.07;;;1.00;;
5807;SDS011;2930;42.678;23.312;2023-03-09T03:14:34;1.17;;;1.07;;
5807;SDS011;2930;42.678;23.312;2023-03-09T03:17:01;1.10;;;1.00;;
5807;SDS011;2930;42.678;23.312;2023-03-09T03:19:27;1.57;;;1.47;;
5807;SDS011;2930;42.678;23.312;2023-03-09T03:21:52;0.97;;;0.97;;
5807;SDS011;2930;42.678;23.312;2023-03-09T03:24:18;1.53;;;1.23;;
5807;SDS011;2930;42.678;23.312;2023-03-09T03:26:44;4.60;;;1.00;;
5807;SDS011;2930;42.678;23.312;2023-03-09T03:29:09;0.93;;;0.70;;
5807;SDS011;2930;42.678;23.312;2023-03-09T03:31:35;0.67;;;0.67;;
5807;SDS011;2930;42.678;23.312;2023-03-09T03:34:00;1.23;;;1.13;;
5807;SDS011;2930;42.678;23.312;2023-03-09T03:36:26;2.10;;;0.77;;
5807;SDS011;2930;42.678;23.312;2023-03-09T03:38:52;0.70;;;0.70;;
5807;SDS011;2930;42.678;23.312;2023-03-09T03:41:18;0.80;;;0.73;;
5807;SDS011;2930;42.678;23.312;2023-03-09T03:43:43;1.33;;;0.70;;
5807;SDS011;2930;42.678;23.312;2023-03-09T03:46:09;0.73;;;0.73;;
5807;SDS011;2930;42.678;23.312;2023-03-09T03:48:35;1.50;;;0.87;;
5807;SDS011;2930;42.678;23.312;2023-03-09T03:51:02;1.43;;;1.20;;
5807;SDS011;2930;42.678;23.312;2023-03-09T03:53:29;0.73;;;0.73;;
5807;SDS011;2930;42.678;23.312;2023-03-09T03:55:55;2.20;;;0.90;;
5807;SDS011;2930;42.678;23.312;2023-03-09T03:58:21;2.77;;;0.73;;
5807;SDS011;2930;42.678;23.312;2023-03-09T04:00:47;0.70;;;0.70;;
5807;SDS011;2930;42.678;23.312;2023-03-09T04:03:12;0.63;;;0.63;;
5807;SDS011;2930;42.678;23.312;2023-03-09T04:05:38;0.93;;;0.60;;
5807;SDS011;2930;42.678;23.312;2023-03-09T04:08:04;0.63;;;0.63;;
5807;SDS011;2930;42.678;23.312;2023-03-09T04:10:29;0.90;;;0.90;;
5807;SDS011;2930;42.678;23.312;2023-03-09T04:12:55;0.50;;;0.50;;
5807;SDS011;2930;42.678;23.312;2023-03-09T04:15:22;1.00;;;1.00;;
5807;SDS011;2930;42.678;23.312;2023-03-09T04:17:47;3.23;;;0.60;;
5807;SDS011;2930;42.678;23.312;2023-03-09T04:20:13;0.43;;;0.43;;
5807;SDS011;2930;42.678;23.312;2023-03-09T04:22:39;3.33;;;0.87;;
5807;SDS011;2930;42.678;23.312;2023-03-09T04:25:06;0.80;;;0.80;;
5807;SDS011;2930;42.678;23.312;2023-03-09T04:27:32;0.60;;;0.50;;
5807;SDS011;2930;42.678;23.312;2023-03-09T04:29:58;0.63;;;0.63;;
5807;SDS011;2930;42.678;23.312;2023-03-09T04:32:23;0.47;;;0.47;;
5807;SDS011;2930;42.678;23.312;2023-03-09T04:34:49;0.70;;;0.70;;
5807;SDS011;2930;42.678;23.312;2023-03-09T04:37:14;0.87;;;0.63;;
5807;SDS011;2930;42.678;23.312;2023-03-09T04:39:40;0.40;;;0.40;;
5807;SDS011;2930;42.678;23.312;2023-03-09T04:42:06;0.83;;;0.83;;
5807;SDS011;2930;42.678;23.312;2023-03-09T04:44:31;1.00;;;1.00;;
5807;SDS011;2930;42.678;23.312;2023-03-09T04:46:57;0.70;;;0.70;;
5807;SDS011;2930;42.678;23.312;2023-03-09T04:49:23;1.30;;;1.03;;
5807;SDS011;2930;42.678;23.312;2023-03-09T04:51:48;1.33;;;1.03;;
5807;SDS011;2930;42.678;23.312;2023-03-09T04:54:14;0.57;;;0.57;;
5807;SDS011;2930;42.678;23.312;2023-03-09T04:56:40;0.73;;;0.73;;
5807;SDS011;2930;42.678;23.312;2023-03-09T04:59:05;1.00;;;0.70;;
5807;SDS011;2930;42.678;23.312;2023-03-09T05:01:31;1.50;;;0.93;;
5807;SDS011;2930;42.678;23.312;2023-03-09T05:03:57;1.53;;;0.83;;
5807;SDS011;2930;42.678;23.312;2023-03-09T05:06:22;1.20;;;1.10;;
5807;SDS011;2930;42.678;23.312;2023-03-09T05:08:48;1.30;;;0.80;;
5807;SDS011;2930;42.678;23.312;2023-03-09T05:11:13;1.20;;;1.10;;
5807;SDS011;2930;42.678;23.312;2023-03-09T05:13:39;1.10;;;1.10;;
5807;SDS011;2930;42.678;23.312;2023-03-09T05:16:05;0.90;;;0.90;;
5807;SDS011;2930;42.678;23.312;2023-03-09T05:18:32;0.93;;;0.93;;
5807;SDS011;2930;42.678;23.312;2023-03-09T05:21:05;1.30;;;0.80;;
5807;SDS011;2930;42.678;23.312;2023-03-09T05:23:32;1.10;;;1.10;;
5807;SDS011;2930;42.678;23.312;2023-03-09T05:25:59;0.70;;;0.70;;
5807;SDS011;2930;42.678;23.312;2023-03-09T05:28:26;2.00;;;0.87;;
5807;SDS011;2930;42.678;23.312;2023-03-09T05:30:53;1.53;;;0.97;;
5807;SDS011;2930;42.678;23.312;2023-03-09T05:33:19;1.00;;;1.00;;
5807;SDS011;2930;42.678;23.312;2023-03-09T05:35:44;0.73;;;0.73;;
5807;SDS011;2930;42.678;23.312;2023-03-09T05:38:10;0.60;;;0.60;;
5807;SDS011;2930;42.678;23.312;2023-03-09T05:40:36;0.80;;;0.73;;
5807;SDS011;2930;42.678;23.312;2023-03-09T05:43:01;2.27;;;0.90;;
5807;SDS011;2930;42.678;23.312;2023-03-09T05:45:27;1.33;;;1.33;;
5807;SDS011;2930;42.678;23.312;2023-03-09T05:47:53;1.23;;;1.23;;
5807;SDS011;2930;42.678;23.312;2023-03-09T05:50:19;2.77;;;1.00;;
5807;SDS011;2930;42.678;23.312;2023-03-09T05:52:44;2.50;;;1.00;;
5807;SDS011;2930;42.678;23.312;2023-03-09T05:55:10;1.60;;;1.33;;
5807;SDS011;2930;42.678;23.312;2023-03-09T05:57:37;1.47;;;1.27;;
5807;SDS011;2930;42.678;23.312;2023-03-09T06:00:03;3.73;;;1.40;;
5807;SDS011;2930;42.678;23.312;2023-03-09T06:02:32;6.77;;;1.20;;
5807;SDS011;2930;42.678;23.312;2023-03-09T06:04:58;2.47;;;1.60;;
5807;SDS011;2930;42.678;23.312;2023-03-09T06:07:24;2.53;;;2.17;;
5807;SDS011;2930;42.678;23.312;2023-03-09T06:09:50;3.43;;;1.60;;
5807;SDS011;2930;42.678;23.312;2023-03-09T06:12:15;1.73;;;1.67;;
5807;SDS011;2930;42.678;23.312;2023-03-09T06:14:42;2.53;;;2.37;;
5807;SDS011;2930;42.678;23.312;2023-03-09T06:17:08;3.87;;;2.60;;
5807;SDS011;2930;42.678;23.312;2023-03-09T06:19:34;4.17;;;2.33;;
5807;SDS011;2930;42.678;23.312;2023-03-09T06:21:59;8.50;;;2.50;;
5807;SDS011;2930;42.678;23.312;2023-03-09T06:24:25;3.33;;;1.77;;
5807;SDS011;2930;42.678;23.312;2023-03-09T06:26:50;3.00;;;2.23;;
5807;SDS011;2930;42.678;23.312;2023-03-09T06:29:16;3.13;;;2.13;;
5807;SDS011;2930;42.678;23.312;2023-03-09T06:31:42;3.63;;;2.17;;
5807;SDS011;2930;42.678;23.312;2023-03-09T06:34:07;1.80;;;1.70;;
5807;SDS011;2930;42.678;23.312;2023-03-09T06:36:33;5.23;;;1.63;;
5807;SDS011;2930;42.678;23.312;2023-03-09T06:39:00;1.37;;;1.33;;
5807;SDS011;2930;42.678;23.312;2023-03-09T06:41:25;2.97;;;1.30;;
5807;SDS011;2930;42.678;23.312;2023-03-09T06:43:56;5.23;;;2.10;;
5807;SDS011;2930;42.678;23.312;2023-03-09T06:46:22;1.77;;;1.47;;
5807;SDS011;2930;42.678;23.312;2023-03-09T06:48:48;2.40;;;1.57;;
5807;SDS011;2930;42.678;23.312;2023-03-09T06:51:14;3.33;;;1.53;;
5807;SDS011;2930;42.678;23.312;2023-03-09T06:53:39;0.93;;;0.93;;
5807;SDS011;2930;42.678;23.312;2023-03-09T06:56:05;1.97;;;1.63;;
5807;SDS011;2930;42.678;23.312;2023-03-09T06:58:31;5.87;;;1.80;;
5807;SDS011;2930;42.678;23.312;2023-03-09T07:00:58;1.60;;;1.17;;
5807;SDS011;2930;42.678;23.312;2023-03-09T07:03:31;1.90;;;1.80;;
5807;SDS011;2930;42.678;23.312;2023-03-09T07:05:57;6.10;;;2.00;;
5807;SDS011;2930;42.678;23.312;2023-03-09T07:08:23;1.88;;;1.80;;
5807;SDS011;2930;42.678;23.312;2023-03-09T07:10:48;2.25;;;1.83;;
5807;SDS011;2930;42.678;23.312;2023-03-09T07:13:14;1.85;;;1.75;;
5807;SDS011;2930;42.678;23.312;2023-03-09T07:15:40;2.63;;;2.13;;
5807;SDS011;2930;42.678;23.312;2023-03-09T07:18:07;2.25;;;2.15;;
5807;SDS011;2930;42.678;23.312;2023-03-09T07:20:33;1.85;;;1.73;;
5807;SDS011;2930;42.678;23.312;2023-03-09T07:22:58;1.70;;;1.60;;
5807;SDS011;2930;42.678;23.312;2023-03-09T07:25:24;3.38;;;1.85;;
5807;SDS011;2930;42.678;23.312;2023-03-09T07:27:49;6.30;;;2.72;;
5807;SDS011;2930;42.678;23.312;2023-03-09T07:30:15;4.00;;;2.35;;
5807;SDS011;2930;42.678;23.312;2023-03-09T07:32:41;5.43;;;2.47;;
5807;SDS011;2930;42.678;23.312;2023-03-09T07:35:07;2.08;;;1.98;;
5807;SDS011;2930;42.678;23.312;2023-03-09T07:37:33;2.53;;;2.30;;
5807;SDS011;2930;42.678;23.312;2023-03-09T07:39:59;3.83;;;2.00;;
5807;SDS011;2930;42.678;23.312;2023-03-09T07:42:25;2.00;;;1.90;;
5807;SDS011;2930;42.678;23.312;2023-03-09T07:44:50;2.38;;;2.25;;
5807;SDS011;2930;42.678;23.312;2023-03-09T07:47:16;2.25;;;2.15;;
5807;SDS011;2930;42.678;23.312;2023-03-09T07:49:42;3.95;;;3.13;;
5807;SDS011;2930;42.678;23.312;2023-03-09T07:52:08;6.40;;;2.63;;
5807;SDS011;2930;42.678;23.312;2023-03-09T07:54:34;4.65;;;3.00;;
5807;SDS011;2930;42.678;23.312;2023-03-09T07:57:01;2.78;;;2.55;;
5807;SDS011;2930;42.678;23.312;2023-03-09T07:59:27;4.00;;;3.60;;
5807;SDS011;2930;42.678;23.312;2023-03-09T08:01:53;5.97;;;3.38;;
5807;SDS011;2930;42.678;23.312;2023-03-09T08:04:19;3.28;;;3.08;;
5807;SDS011;2930;42.678;23.312;2023-03-09T08:06:44;5.82;;;4.40;;
5807;SDS011;2930;42.678;23.312;2023-03-09T08:09:12;4.90;;;4.40;;
5807;SDS011;2930;42.678;23.312;2023-03-09T08:11:39;5.75;;;3.75;;
5807;SDS011;2930;42.678;23.312;2023-03-09T08:14:05;6.50;;;4.32;;
5807;SDS011;2930;42.678;23.312;2023-03-09T08:16:31;4.50;;;4.13;;
5807;SDS011;2930;42.678;23.312;2023-03-09T08:18:56;7.03;;;4.00;;
5807;SDS011;2930;42.678;23.312;2023-03-09T08:21:22;8.57;;;4.35;;
5807;SDS011;2930;42.678;23.312;2023-03-09T08:23:48;4.35;;;4.00;;
5807;SDS011;2930;42.678;23.312;2023-03-09T08:26:14;5.43;;;4.15;;
5807;SDS011;2930;42.678;23.312;2023-03-09T08:28:41;4.05;;;3.65;;
5807;SDS011;2930;42.678;23.312;2023-03-09T08:31:12;4.18;;;3.83;;
5807;SDS011;2930;42.678;23.312;2023-03-09T08:33:39;6.35;;;3.33;;
5807;SDS011;2930;42.678;23.312;2023-03-09T08:36:09;4.68;;;3.72;;
5807;SDS011;2930;42.678;23.312;2023-03-09T08:38:36;3.85;;;3.13;;
5807;SDS011;2930;42.678;23.312;2023-03-09T08:41:01;5.28;;;3.35;;
5807;SDS011;2930;42.678;23.312;2023-03-09T08:43:28;2.95;;;2.85;;
5807;SDS011;2930;42.678;23.312;2023-03-09T08:45:53;4.10;;;3.00;;
5807;SDS011;2930;42.678;23.312;2023-03-09T08:48:19;2.80;;;2.60;;
5807;SDS011;2930;42.678;23.312;2023-03-09T08:50:44;3.58;;;2.67;;
5807;SDS011;2930;42.678;23.312;2023-03-09T08:53:10;2.63;;;2.53;;
5807;SDS011;2930;42.678;23.312;2023-03-09T08:55:36;2.58;;;2.45;;
5807;SDS011;2930;42.678;23.312;2023-03-09T08:58:01;3.20;;;2.88;;
5807;SDS011;2930;42.678;23.312;2023-03-09T09:00:27;2.38;;;2.17;;
5807;SDS011;2930;42.678;23.312;2023-03-09T09:02:53;2.30;;;2.10;;
5807;SDS011;2930;42.678;23.312;2023-03-09T09:05:18;3.88;;;3.47;;
5807;SDS011;2930;42.678;23.312;2023-03-09T09:07:44;2.50;;;2.30;;
5807;SDS011;2930;42.678;23.312;2023-03-09T09:10:10;3.00;;;2.72;;
5807;SDS011;2930;42.678;23.312;2023-03-09T09:12:36;2.20;;;2.10;;
5807;SDS011;2930;42.678;23.312;2023-03-09T09:15:03;9.48;;;2.75;;
5807;SDS011;2930;42.678;23.312;2023-03-09T09:17:30;5.15;;;2.78;;
5807;SDS011;2930;42.678;23.312;2023-03-09T09:19:56;3.63;;;2.30;;
5807;SDS011;2930;42.678;23.312;2023-03-09T09:22:22;3.65;;;2.50;;
5807;SDS011;2930;42.678;23.312;2023-03-09T09:24:47;2.42;;;2.22;;
5807;SDS011;2930;42.678;23.312;2023-03-09T09:27:14;4.68;;;1.83;;
5807;SDS011;2930;42.678;23.312;2023-03-09T09:29:39;2.35;;;2.15;;
5807;SDS011;2930;42.678;23.312;2023-03-09T09:32:05;4.28;;;2.00;;
5807;SDS011;2930;42.678;23.312;2023-03-09T09:34:33;7.35;;;2.10;;
5807;SDS011;2930;42.678;23.312;2023-03-09T09:37:00;2.33;;;2.20;;
5807;SDS011;2930;42.678;23.312;2023-03-09T09:39:27;1.83;;;1.73;;
5807;SDS011;2930;42.678;23.312;2023-03-09T09:42:20;2.33;;;2.15;;
5807;SDS011;2930;42.678;23.312;2023-03-09T09:44:45;4.68;;;2.38;;
5807;SDS011;2930;42.678;23.312;2023-03-09T09:47:13;2.50;;;1.77;;
5807;SDS011;2930;42.678;23.312;2023-03-09T09:49:44;3.50;;;1.63;;
5807;SDS011;2930;42.678;23.312;2023-03-09T09:57:42;1.52;;;1.42;;
5807;SDS011;2930;42.678;23.312;2023-03-09T10:00:20;3.63;;;1.73;;
5807;SDS011;2930;42.678;23.312;2023-03-09T10:11:13;1.80;;;1.50;;
5807;SDS011;2930;42.678;23.312;2023-03-09T10:13:50;2.35;;;1.40;;
5807;SDS011;2930;42.678;23.312;2023-03-09T10:16:26;1.85;;;1.50;;
5807;SDS011;2930;42.678;23.312;2023-03-09T10:18:59;1.52;;;1.38;;
5807;SDS011;2930;42.678;23.312;2023-03-09T10:24:25;2.13;;;1.70;;
5807;SDS011;2930;42.678;23.312;2023-03-09T10:26:53;1.45;;;1.35;;
5807;SDS011;2930;42.678;23.312;2023-03-09T10:32:12;5.50;;;1.20;;
5807;SDS011;2930;42.678;23.312;2023-03-09T10:34:51;1.55;;;1.27;;
5807;SDS011;2930;42.678;23.312;2023-03-09T10:37:23;1.48;;;1.38;;
5807;SDS011;2930;42.678;23.312;2023-03-09T10:39:52;1.85;;;0.95;;
5807;SDS011;2930;42.678;23.312;2023-03-09T10:42:20;0.40;;;0.38;;
5807;SDS011;2930;42.678;23.312;2023-03-09T10:44:57;0.47;;;0.40;;
5807;SDS011;2930;42.678;23.312;2023-03-09T10:50:14;0.30;;;0.30;;
5807;SDS011;2930;42.678;23.312;2023-03-09T10:52:40;3.47;;;0.40;;
5807;SDS011;2930;42.678;23.312;2023-03-09T10:55:26;0.30;;;0.30;;
5807;SDS011;2930;42.678;23.312;2023-03-09T10:58:00;1.40;;;0.28;;
5807;SDS011;2930;42.678;23.312;2023-03-09T11:00:46;1.27;;;0.30;;
5807;SDS011;2930;42.678;23.312;2023-03-09T11:03:36;0.30;;;0.30;;
5807;SDS011;2930;42.678;23.312;2023-03-09T11:08:41;0.30;;;0.30;;
5807;SDS011;2930;42.678;23.312;2023-03-09T11:11:16;0.88;;;0.30;;
5807;SDS011;2930;42.678;23.312;2023-03-09T11:13:44;0.40;;;0.40;;
5807;SDS011;2930;42.678;23.312;2023-03-09T11:16:19;0.30;;;0.30;;
5807;SDS011;2930;42.678;23.312;2023-03-09T11:21:37;0.25;;;0.25;;
5807;SDS011;2930;42.678;23.312;2023-03-09T11:24:55;0.32;;;0.32;;
5807;SDS011;2930;42.678;23.312;2023-03-09T11:27:25;0.30;;;0.20;;
5807;SDS011;2930;42.678;23.312;2023-03-09T11:29:57;1.05;;;0.40;;
5807;SDS011;2930;42.678;23.312;2023-03-09T11:32:30;0.57;;;0.45;;
5807;SDS011;2930;42.678;23.312;2023-03-09T11:34:56;0.32;;;0.32;;
5807;SDS011;2930;42.678;23.312;2023-03-09T11:37:27;2.17;;;0.43;;
5807;SDS011;2930;42.678;23.312;2023-03-09T11:40:30;0.17;;;0.17;;
5807;SDS011;2930;42.678;23.312;2023-03-09T11:45:44;1.05;;;0.20;;
5807;SDS011;2930;42.678;23.312;2023-03-09T11:48:15;0.30;;;0.30;;
5807;SDS011;2930;42.678;23.312;2023-03-09T11:51:00;0.30;;;0.30;;
5807;SDS011;2930;42.678;23.312;2023-03-09T11:53:37;0.22;;;0.22;;
5807;SDS011;2930;42.678;23.312;2023-03-09T11:58:40;0.30;;;0.30;;
5807;SDS011;2930;42.678;23.312;2023-03-09T12:04:00;0.20;;;0.20;;
5807;SDS011;2930;42.678;23.312;2023-03-09T12:09:08;0.20;;;0.20;;
5807;SDS011;2930;42.678;23.312;2023-03-09T12:14:46;0.30;;;0.30;;
5807;SDS011;2930;42.678;23.312;2023-03-09T12:17:29;0.20;;;0.20;;
5807;SDS011;2930;42.678;23.312;2023-03-09T12:20:01;0.20;;;0.20;;
5807;SDS011;2930;42.678;23.312;2023-03-09T12:22:36;0.40;;;0.40;;
5807;SDS011;2930;42.678;23.312;2023-03-09T12:25:04;0.30;;;0.30;;
5807;SDS011;2930;42.678;23.312;2023-03-09T12:27:41;0.30;;;0.30;;
5807;SDS011;2930;42.678;23.312;2023-03-09T12:30:23;0.30;;;0.30;;
5807;SDS011;2930;42.678;23.312;2023-03-09T12:32:50;0.30;;;0.30;;
5807;SDS011;2930;42.678;23.312;2023-03-09T12:40:21;0.82;;;0.20;;
5807;SDS011;2930;42.678;23.312;2023-03-09T12:42:51;0.30;;;0.30;;
5807;SDS011;2930;42.678;23.312;2023-03-09T12:47:48;0.20;;;0.20;;
5807;SDS011;2930;42.678;23.312;2023-03-09T12:53:21;0.20;;;0.20;;
5807;SDS011;2930;42.678;23.312;2023-03-09T12:56:00;0.10;;;0.10;;
5807;SDS011;2930;42.678;23.312;2023-03-09T12:58:35;0.20;;;0.20;;
5807;SDS011;2930;42.678;23.312;2023-03-09T13:03:47;0.35;;;0.35;;
5807;SDS011;2930;42.678;23.312;2023-03-09T13:06:26;0.55;;;0.35;;
5807;SDS011;2930;42.678;23.312;2023-03-09T13:09:06;0.32;;;0.30;;
5807;SDS011;2930;42.678;23.312;2023-03-09T13:14:10;0.32;;;0.32;;
5807;SDS011;2930;42.678;23.312;2023-03-09T13:32:24;0.55;;;0.30;;
5807;SDS011;2930;42.678;23.312;2023-03-09T13:34:54;1.15;;;0.40;;
5807;SDS011;2930;42.678;23.312;2023-03-09T13:37:23;0.30;;;0.30;;
5807;SDS011;2930;42.678;23.312;2023-03-09T13:42:54;2.90;;;0.40;;
5807;SDS011;2930;42.678;23.312;2023-03-09T13:45:23;0.30;;;0.30;;
5807;SDS011;2930;42.678;23.312;2023-03-09T13:47:54;0.40;;;0.40;;
5807;SDS011;2930;42.678;23.312;2023-03-09T13:50:23;0.63;;;0.35;;
5807;SDS011;2930;42.678;23.312;2023-03-09T13:53:05;0.20;;;0.20;;
5807;SDS011;2930;42.678;23.312;2023-03-09T13:55:55;0.68;;;0.20;;
5807;SDS011;2930;42.678;23.312;2023-03-09T13:58:26;0.50;;;0.40;;
5807;SDS011;2930;42.678;23.312;2023-03-09T14:01:01;2.35;;;0.32;;
5807;SDS011;2930;42.678;23.312;2023-03-09T14:03:29;1.55;;;0.30;;
5807;SDS011;2930;42.678;23.312;2023-03-09T14:06:00;0.30;;;0.30;;
5807;SDS011;2930;42.678;23.312;2023-03-09T14:08:33;0.43;;;0.43;;
5807;SDS011;2930;42.678;23.312;2023-03-09T14:11:19;0.32;;;0.20;;
5807;SDS011;2930;42.678;23.312;2023-03-09T14:16:24;0.30;;;0.30;;
5807;SDS011;2930;42.678;23.312;2023-03-09T14:18:54;0.17;;;0.17;;
5807;SDS011;2930;42.678;23.312;2023-03-09T14:21:26;0.38;;;0.25;;
5807;SDS011;2930;42.678;23.312;2023-03-09T14:23:54;0.28;;;0.28;;
5807;SDS011;2930;42.678;23.312;2023-03-09T14:26:34;0.40;;;0.30;;
5807;SDS011;2930;42.678;23.312;2023-03-09T14:29:18;0.35;;;0.20;;
5807;SDS011;2930;42.678;23.312;2023-03-09T14:34:43;0.80;;;0.40;;
5807;SDS011;2930;42.678;23.312;2023-03-09T14:37:20;1.85;;;0.20;;
5807;SDS011;2930;42.678;23.312;2023-03-09T14:39:49;2.53;;;0.30;;
5807;SDS011;2930;42.678;23.312;2023-03-09T14:44:59;0.20;;;0.20;;
5807;SDS011;2930;42.678;23.312;2023-03-09T14:47:36;0.45;;;0.22;;
5807;SDS011;2930;42.678;23.312;2023-03-09T14:50:03;0.20;;;0.20;;
5807;SDS011;2930;42.678;23.312;2023-03-09T14:52:29;0.20;;;0.20;;
5807;SDS011;2930;42.678;23.312;2023-03-09T14:54:56;1.30;;;0.40;;
5807;SDS011;2930;42.678;23.312;2023-03-09T14:57:24;0.20;;;0.20;;
5807;SDS011;2930;42.678;23.312;2023-03-09T14:59:50;0.40;;;0.40;;
5807;SDS011;2930;42.678;23.312;2023-03-09T15:02:16;0.30;;;0.30;;
5807;SDS011;2930;42.678;23.312;2023-03-09T15:04:43;2.92;;;0.50;;
5807;SDS011;2930;42.678;23.312;2023-03-09T15:07:12;0.30;;;0.30;;
5807;SDS011;2930;42.678;23.312;2023-03-09T15:09:39;0.30;;;0.30;;
5807;SDS011;2930;42.678;23.312;2023-03-09T15:12:16;0.30;;;0.30;;
5807;SDS011;2930;42.678;23.312;2023-03-09T15:14:45;0.38;;;0.38;;
5807;SDS011;2930;42.678;23.312;2023-03-09T15:17:16;0.40;;;0.40;;
5807;SDS011;2930;42.678;23.312;2023-03-09T15:19:44;0.50;;;0.50;;
5807;SDS011;2930;42.678;23.312;2023-03-09T15:22:10;0.68;;;0.40;;
5807;SDS011;2930;42.678;23.312;2023-03-09T15:24:37;0.40;;;0.40;;
5807;SDS011;2930;42.678;23.312;2023-03-09T15:27:03;0.35;;;0.35;;
5807;SDS011;2930;42.678;23.312;2023-03-09T15:29:29;0.50;;;0.50;;
5807;SDS011;2930;42.678;23.312;2023-03-09T15:31:54;0.30;;;0.30;;
5807;SDS011;2930;42.678;23.312;2023-03-09T15:34:20;0.55;;;0.30;;
5807;SDS011;2930;42.678;23.312;2023-03-09T15:36:46;0.55;;;0.55;;
5807;SDS011;2930;42.678;23.312;2023-03-09T15:39:12;0.40;;;0.40;;
5807;SDS011;2930;42.678;23.312;2023-03-09T15:41:38;0.95;;;0.30;;
5807;SDS011;2930;42.678;23.312;2023-03-09T15:44:03;0.40;;;0.40;;
5807;SDS011;2930;42.678;23.312;2023-03-09T15:46:29;0.30;;;0.30;;
5807;SDS011;2930;42.678;23.312;2023-03-09T15:48:55;0.57;;;0.30;;
5807;SDS011;2930;42.678;23.312;2023-03-09T15:51:21;1.60;;;0.50;;
5807;SDS011;2930;42.678;23.312;2023-03-09T15:53:46;0.80;;;0.47;;
5807;SDS011;2930;42.678;23.312;2023-03-09T15:56:13;0.93;;;0.65;;
5807;SDS011;2930;42.678;23.312;2023-03-09T15:58:40;0.93;;;0.47;;
5807;SDS011;2930;42.678;23.312;2023-03-09T16:01:07;0.38;;;0.38;;
5807;SDS011;2930;42.678;23.312;2023-03-09T16:03:38;0.40;;;0.40;;
5807;SDS011;2930;42.678;23.312;2023-03-09T16:06:05;0.60;;;0.60;;
5807;SDS011;2930;42.678;23.312;2023-03-09T16:08:31;0.60;;;0.60;;
5807;SDS011;2930;42.678;23.312;2023-03-09T16:10:57;0.55;;;0.55;;
5807;SDS011;2930;42.678;23.312;2023-03-09T16:13:23;0.88;;;0.85;;
5807;SDS011;2930;42.678;23.312;2023-03-09T16:15:49;1.02;;;0.88;;
5807;SDS011;2930;42.678;23.312;2023-03-09T16:18:16;2.45;;;0.85;;
5807;SDS011;2930;42.678;23.312;2023-03-09T16:20:42;1.08;;;0.70;;
5807;SDS011;2930;42.678;23.312;2023-03-09T16:23:08;0.65;;;0.65;;
5807;SDS011;2930;42.678;23.312;2023-03-09T16:25:34;2.28;;;0.73;;
5807;SDS011;2930;42.678;23.312;2023-03-09T16:28:00;0.60;;;0.60;;
5807;SDS011;2930;42.678;23.312;2023-03-09T16:30:26;0.85;;;0.60;;
5807;SDS011;2930;42.678;23.312;2023-03-09T16:32:53;1.85;;;0.52;;
5807;SDS011;2930;42.678;23.312;2023-03-09T16:35:20;0.50;;;0.50;;
5807;SDS011;2930;42.678;23.312;2023-03-09T16:37:47;4.28;;;0.80;;